sensor_id;sensor_type;location;lat;lon;timestamp;P1;durP1;ratioP1;P2;durP2;ratioP2
3795;SDS011;1913;50.660;7.834;2023-04-08T00:00:12;87.03;;;29.77;;
3795;SDS011;1913;50.660;7.834;2023-04-08T00:02:38;111.50;;;29.57;;
3795;SDS011;1913;50.660;7.834;2023-04-08T00:05:03;115.97;;;32.07;;
3795;SDS011;1913;50.660;7.834;2023-04-08T00:07:30;180.97;;;36.27;;
3795;SDS011;1913;50.660;7.834;2023-04-08T00:09:56;129.87;;;33.40;;
3795;SDS011;1913;50.660;7.834;2023-04-08T00:12:22;127.00;;;33.33;;
3795;SDS011;1913;50.660;7.834;2023-04-08T00:14:47;77.40;;;28.87;;
3795;SDS011;1913;50.660;7.834;2023-04-08T00:17:12;97.17;;;30.80;;
3795;SDS011;1913;50.660;7.834;2023-04-08T00:19:38;391.33;;;47.80;;
3795;SDS011;1913;50.660;7.834;2023-04-08T00:22:03;265.23;;;39.07;;
3795;SDS011;1913;50.660;7.834;2023-04-08T00:24:28;636.27;;;62.83;;
3795;SDS011;1913;50.660;7.834;2023-04-08T00:26:54;311.47;;;39.97;;
3795;SDS011;1913;50.660;7.834;2023-04-08T00:29:20;141.87;;;31.27;;
3795;SDS011;1913;50.660;7.834;2023-04-08T00:31:45;366.93;;;42.90;;
3795;SDS011;1913;50.660;7.834;2023-04-08T00:34:11;292.17;;;37.30;;
3795;SDS011;1913;50.660;7.834;2023-04-08T00:36:37;103.30;;;29.23;;
3795;SDS011;1913;50.660;7.834;2023-04-08T00:39:03;165.33;;;30.63;;
3795;SDS011;1913;50.660;7.834;2023-04-08T00:41:30;315.43;;;41.00;;
3795;SDS011;1913;50.660;7.834;2023-04-08T00:43:57;363.80;;;41.40;;
3795;SDS011;1913;50.660;7.834;2023-04-08T00:46:22;100.30;;;30.17;;
3795;SDS011;1913;50.660;7.834;2023-04-08T00:48:48;300.30;;;37.17;;
3795;SDS011;1913;50.660;7.834;2023-04-08T00:51:13;419.93;;;47.03;;
3795;SDS011;1913;50.660;7.834;2023-04-08T00:53:38;111.67;;;31.63;;
3795;SDS011;1913;50.660;7.834;2023-04-08T00:56:04;290.63;;;42.70;;
3795;SDS011;1913;50.660;7.834;2023-04-08T00:58:30;544.37;;;56.57;;
3795;SDS011;1913;50.660;7.834;2023-04-08T01:01:06;401.93;;;47.70;;
3795;SDS011;1913;50.660;7.834;2023-04-08T01:06:44;427.30;;;50.47;;
3795;SDS011;1913;50.660;7.834;2023-04-08T01:09:11;419.63;;;46.97;;
3795;SDS011;1913;50.660;7.834;2023-04-08T01:11:37;296.10;;;40.90;;
3795;SDS011;1913;50.660;7.834;2023-04-08T01:14:07;181.93;;;36.17;;
3795;SDS011;1913;50.660;7.834;2023-04-08T01:16:37;121.67;;;33.53;;
3795;SDS011;1913;50.660;7.834;2023-04-08T01:19:07;133.53;;;35.70;;
3795;SDS011;1913;50.660;7.834;2023-04-08T01:21:35;282.47;;;43.40;;
3795;SDS011;1913;50.660;7.834;2023-04-08T01:24:05;94.97;;;31.83;;
3795;SDS011;1913;50.660;7.834;2023-04-08T01:26:38;92.50;;;26.87;;
3795;SDS011;1913;50.660;7.834;2023-04-08T01:29:04;139.57;;;36.07;;
3795;SDS011;1913;50.660;7.834;2023-04-08T01:31:30;139.80;;;34.47;;
3795;SDS011;1913;50.660;7.834;2023-04-08T01:33:56;92.07;;;28.27;;
3795;SDS011;1913;50.660;7.834;2023-04-08T01:36:23;136.97;;;34.27;;
3795;SDS011;1913;50.660;7.834;2023-04-08T01:38:50;84.43;;;29.90;;
3795;SDS011;1913;50.660;7.834;2023-04-08T01:41:16;91.93;;;30.50;;
3795;SDS011;1913;50.660;7.834;2023-04-08T01:43:43;58.40;;;24.97;;
3795;SDS011;1913;50.660;7.834;2023-04-08T01:46:10;54.00;;;24.60;;
3795;SDS011;1913;50.660;7.834;2023-04-08T01:48:37;59.03;;;25.07;;
3795;SDS011;1913;50.660;7.834;2023-04-08T01:51:04;68.07;;;26.23;;
3795;SDS011;1913;50.660;7.834;2023-04-08T01:53:31;60.90;;;25.70;;
3795;SDS011;1913;50.660;7.834;2023-04-08T01:56:00;56.53;;;25.27;;
3795;SDS011;1913;50.660;7.834;2023-04-08T01:58:30;51.87;;;23.60;;
3795;SDS011;1913;50.660;7.834;2023-04-08T02:01:01;54.43;;;24.10;;
3795;SDS011;1913;50.660;7.834;2023-04-08T02:03:29;43.33;;;21.60;;
3795;SDS011;1913;50.660;7.834;2023-04-08T02:05:55;39.83;;;20.67;;
3795;SDS011;1913;50.660;7.834;2023-04-08T02:08:20;41.33;;;21.70;;
3795;SDS011;1913;50.660;7.834;2023-04-08T02:10:46;32.43;;;19.67;;
3795;SDS011;1913;50.660;7.834;2023-04-08T02:13:12;34.63;;;19.20;;
3795;SDS011;1913;50.660;7.834;2023-04-08T02:15:37;31.87;;;19.70;;
3795;SDS011;1913;50.660;7.834;2023-04-08T02:18:08;35.70;;;20.00;;
3795;SDS011;1913;50.660;7.834;2023-04-08T02:20:39;36.77;;;20.20;;
3795;SDS011;1913;50.660;7.834;2023-04-08T02:23:09;31.60;;;18.80;;
3795;SDS011;1913;50.660;7.834;2023-04-08T02:25:42;33.70;;;18.40;;
3795;SDS011;1913;50.660;7.834;2023-04-08T02:28:09;40.50;;;20.33;;
3795;SDS011;1913;50.660;7.834;2023-04-08T02:30:36;30.57;;;18.63;;
3795;SDS011;1913;50.660;7.834;2023-04-08T02:33:04;32.00;;;19.60;;
3795;SDS011;1913;50.660;7.834;2023-04-08T02:35:30;36.07;;;19.93;;
3795;SDS011;1913;50.660;7.834;2023-04-08T02:37:56;38.77;;;19.13;;
3795;SDS011;1913;50.660;7.834;2023-04-08T02:40:25;34.13;;;19.73;;
3795;SDS011;1913;50.660;7.834;2023-04-08T02:42:56;32.47;;;18.03;;
3795;SDS011;1913;50.660;7.834;2023-04-08T02:45:22;29.17;;;17.60;;
3795;SDS011;1913;50.660;7.834;2023-04-08T02:48:11;34.20;;;18.37;;
3795;SDS011;1913;50.660;7.834;2023-04-08T02:50:36;35.80;;;20.50;;
3795;SDS011;1913;50.660;7.834;2023-04-08T02:53:02;32.13;;;17.73;;
3795;SDS011;1913;50.660;7.834;2023-04-08T02:55:28;34.03;;;18.93;;
3795;SDS011;1913;50.660;7.834;2023-04-08T02:57:53;40.10;;;19.90;;
3795;SDS011;1913;50.660;7.834;2023-04-08T03:00:18;37.23;;;20.47;;
3795;SDS011;1913;50.660;7.834;2023-04-08T03:02:44;51.13;;;23.10;;
3795;SDS011;1913;50.660;7.834;2023-04-08T03:05:09;48.07;;;22.50;;
3795;SDS011;1913;50.660;7.834;2023-04-08T03:07:35;43.90;;;21.70;;
3795;SDS011;1913;50.660;7.834;2023-04-08T03:10:01;46.13;;;22.23;;
3795;SDS011;1913;50.660;7.834;2023-04-08T03:12:27;44.37;;;21.50;;
3795;SDS011;1913;50.660;7.834;2023-04-08T03:14:53;38.53;;;21.53;;
3795;SDS011;1913;50.660;7.834;2023-04-08T03:17:19;42.77;;;22.97;;
3795;SDS011;1913;50.660;7.834;2023-04-08T03:19:45;47.27;;;22.73;;
3795;SDS011;1913;50.660;7.834;2023-04-08T03:22:12;37.90;;;19.73;;
3795;SDS011;1913;50.660;7.834;2023-04-08T03:24:37;38.13;;;20.87;;
3795;SDS011;1913;50.660;7.834;2023-04-08T03:27:03;35.97;;;21.63;;
3795;SDS011;1913;50.660;7.834;2023-04-08T03:29:29;45.40;;;23.00;;
3795;SDS011;1913;50.660;7.834;2023-04-08T03:31:54;35.23;;;20.70;;
3795;SDS011;1913;50.660;7.834;2023-04-08T03:34:20;37.73;;;22.23;;
3795;SDS011;1913;50.660;7.834;2023-04-08T03:36:45;40.17;;;22.33;;
3795;SDS011;1913;50.660;7.834;2023-04-08T03:39:10;42.60;;;22.63;;
3795;SDS011;1913;50.660;7.834;2023-04-08T03:41:36;42.10;;;22.73;;
3795;SDS011;1913;50.660;7.834;2023-04-08T03:44:01;49.00;;;24.10;;
3795;SDS011;1913;50.660;7.834;2023-04-08T03:46:27;41.60;;;22.60;;
3795;SDS011;1913;50.660;7.834;2023-04-08T03:48:52;42.13;;;22.80;;
3795;SDS011;1913;50.660;7.834;2023-04-08T03:51:17;43.90;;;23.63;;
3795;SDS011;1913;50.660;7.834;2023-04-08T03:53:43;40.43;;;23.57;;
3795;SDS011;1913;50.660;7.834;2023-04-08T03:56:08;41.03;;;23.40;;
3795;SDS011;1913;50.660;7.834;2023-04-08T03:58:33;38.73;;;23.13;;
3795;SDS011;1913;50.660;7.834;2023-04-08T04:00:59;39.90;;;23.10;;
3795;SDS011;1913;50.660;7.834;2023-04-08T04:03:24;35.60;;;22.27;;
3795;SDS011;1913;50.660;7.834;2023-04-08T04:05:50;36.10;;;21.93;;
3795;SDS011;1913;50.660;7.834;2023-04-08T04:08:15;37.20;;;22.67;;
3795;SDS011;1913;50.660;7.834;2023-04-08T04:10:41;35.53;;;21.60;;
3795;SDS011;1913;50.660;7.834;2023-04-08T04:13:06;39.00;;;22.87;;
3795;SDS011;1913;50.660;7.834;2023-04-08T04:15:32;36.20;;;23.10;;
3795;SDS011;1913;50.660;7.834;2023-04-08T04:17:57;37.30;;;22.63;;
3795;SDS011;1913;50.660;7.834;2023-04-08T04:20:22;44.60;;;24.50;;
3795;SDS011;1913;50.660;7.834;2023-04-08T04:22:50;38.43;;;23.50;;
3795;SDS011;1913;50.660;7.834;2023-04-08T04:25:15;41.40;;;22.40;;
3795;SDS011;1913;50.660;7.834;2023-04-08T04:27:41;43.27;;;23.73;;
3795;SDS011;1913;50.660;7.834;2023-04-08T04:30:06;41.90;;;25.00;;
3795;SDS011;1913;50.660;7.834;2023-04-08T04:32:33;39.90;;;23.13;;
3795;SDS011;1913;50.660;7.834;2023-04-08T04:34:58;38.07;;;24.17;;
3795;SDS011;1913;50.660;7.834;2023-04-08T04:37:24;43.63;;;24.80;;
3795;SDS011;1913;50.660;7.834;2023-04-08T04:39:50;41.97;;;24.63;;
3795;SDS011;1913;50.660;7.834;2023-04-08T04:42:15;41.57;;;24.63;;
3795;SDS011;1913;50.660;7.834;2023-04-08T04:44:42;40.80;;;23.70;;
3795;SDS011;1913;50.660;7.834;2023-04-08T04:47:08;40.80;;;23.70;;
3795;SDS011;1913;50.660;7.834;2023-04-08T04:49:34;41.20;;;24.40;;
3795;SDS011;1913;50.660;7.834;2023-04-08T04:51:59;41.00;;;24.17;;
3795;SDS011;1913;50.660;7.834;2023-04-08T04:54:24;38.90;;;23.20;;
3795;SDS011;1913;50.660;7.834;2023-04-08T04:56:50;37.10;;;23.17;;
3795;SDS011;1913;50.660;7.834;2023-04-08T04:59:15;40.27;;;23.00;;
3795;SDS011;1913;50.660;7.834;2023-04-08T05:01:41;39.10;;;23.60;;
3795;SDS011;1913;50.660;7.834;2023-04-08T05:04:06;35.97;;;24.13;;
3795;SDS011;1913;50.660;7.834;2023-04-08T05:06:32;39.00;;;23.73;;
3795;SDS011;1913;50.660;7.834;2023-04-08T05:08:57;39.67;;;24.40;;
3795;SDS011;1913;50.660;7.834;2023-04-08T05:11:23;42.63;;;25.27;;
3795;SDS011;1913;50.660;7.834;2023-04-08T05:13:48;43.27;;;25.17;;
3795;SDS011;1913;50.660;7.834;2023-04-08T05:16:14;45.10;;;25.30;;
3795;SDS011;1913;50.660;7.834;2023-04-08T05:18:40;41.80;;;25.50;;
3795;SDS011;1913;50.660;7.834;2023-04-08T05:21:06;43.07;;;25.97;;
3795;SDS011;1913;50.660;7.834;2023-04-08T05:23:31;38.50;;;23.73;;
3795;SDS011;1913;50.660;7.834;2023-04-08T05:25:56;45.03;;;26.97;;
3795;SDS011;1913;50.660;7.834;2023-04-08T05:28:22;40.10;;;25.07;;
3795;SDS011;1913;50.660;7.834;2023-04-08T05:30:50;45.60;;;25.23;;
3795;SDS011;1913;50.660;7.834;2023-04-08T05:33:16;44.17;;;25.13;;
3795;SDS011;1913;50.660;7.834;2023-04-08T05:35:42;45.77;;;26.23;;
3795;SDS011;1913;50.660;7.834;2023-04-08T05:38:07;41.30;;;24.93;;
3795;SDS011;1913;50.660;7.834;2023-04-08T05:40:33;35.93;;;22.37;;
3795;SDS011;1913;50.660;7.834;2023-04-08T05:42:58;39.60;;;23.37;;
3795;SDS011;1913;50.660;7.834;2023-04-08T05:45:24;37.20;;;22.97;;
3795;SDS011;1913;50.660;7.834;2023-04-08T05:47:49;37.87;;;23.03;;
3795;SDS011;1913;50.660;7.834;2023-04-08T05:50:14;37.93;;;22.83;;
3795;SDS011;1913;50.660;7.834;2023-04-08T05:52:41;37.43;;;22.90;;
3795;SDS011;1913;50.660;7.834;2023-04-08T05:55:08;37.90;;;22.90;;
3795;SDS011;1913;50.660;7.834;2023-04-08T05:57:33;38.50;;;23.30;;
3795;SDS011;1913;50.660;7.834;2023-04-08T05:59:59;33.03;;;21.67;;
3795;SDS011;1913;50.660;7.834;2023-04-08T06:02:24;33.77;;;22.17;;
3795;SDS011;1913;50.660;7.834;2023-04-08T06:04:49;39.30;;;23.03;;
3795;SDS011;1913;50.660;7.834;2023-04-08T06:07:15;34.87;;;20.97;;
3795;SDS011;1913;50.660;7.834;2023-04-08T06:09:41;34.47;;;22.10;;
3795;SDS011;1913;50.660;7.834;2023-04-08T06:12:07;35.67;;;23.30;;
3795;SDS011;1913;50.660;7.834;2023-04-08T06:14:32;35.83;;;23.13;;
3795;SDS011;1913;50.660;7.834;2023-04-08T06:16:58;32.83;;;22.23;;
3795;SDS011;1913;50.660;7.834;2023-04-08T06:19:23;35.73;;;22.47;;
3795;SDS011;1913;50.660;7.834;2023-04-08T06:21:48;37.57;;;23.03;;
3795;SDS011;1913;50.660;7.834;2023-04-08T06:24:15;34.70;;;23.10;;
3795;SDS011;1913;50.660;7.834;2023-04-08T06:26:40;38.50;;;24.00;;
3795;SDS011;1913;50.660;7.834;2023-04-08T06:29:06;38.80;;;23.80;;
3795;SDS011;1913;50.660;7.834;2023-04-08T06:31:32;36.43;;;21.47;;
3795;SDS011;1913;50.660;7.834;2023-04-08T06:33:57;36.00;;;22.83;;
3795;SDS011;1913;50.660;7.834;2023-04-08T06:36:23;35.20;;;22.60;;
3795;SDS011;1913;50.660;7.834;2023-04-08T06:38:48;28.03;;;19.30;;
3795;SDS011;1913;50.660;7.834;2023-04-08T06:41:14;31.53;;;20.60;;
3795;SDS011;1913;50.660;7.834;2023-04-08T06:43:39;36.10;;;23.07;;
3795;SDS011;1913;50.660;7.834;2023-04-08T06:46:05;32.27;;;21.00;;
3795;SDS011;1913;50.660;7.834;2023-04-08T06:48:30;29.47;;;19.83;;
3795;SDS011;1913;50.660;7.834;2023-04-08T06:50:56;35.87;;;21.90;;
3795;SDS011;1913;50.660;7.834;2023-04-08T06:53:24;34.73;;;20.50;;
3795;SDS011;1913;50.660;7.834;2023-04-08T06:55:50;35.53;;;22.83;;
3795;SDS011;1913;50.660;7.834;2023-04-08T06:58:15;34.03;;;21.33;;
3795;SDS011;1913;50.660;7.834;2023-04-08T07:00:41;33.13;;;21.07;;
3795;SDS011;1913;50.660;7.834;2023-04-08T07:03:06;35.83;;;21.30;;
3795;SDS011;1913;50.660;7.834;2023-04-08T07:05:34;35.63;;;22.33;;
3795;SDS011;1913;50.660;7.834;2023-04-08T07:08:00;31.93;;;20.20;;
3795;SDS011;1913;50.660;7.834;2023-04-08T07:10:39;34.23;;;21.47;;
3795;SDS011;1913;50.660;7.834;2023-04-08T07:13:05;31.13;;;20.53;;
3795;SDS011;1913;50.660;7.834;2023-04-08T07:15:31;31.70;;;21.23;;
3795;SDS011;1913;50.660;7.834;2023-04-08T07:17:56;32.93;;;20.80;;
3795;SDS011;1913;50.660;7.834;2023-04-08T07:20:22;30.60;;;19.57;;
3795;SDS011;1913;50.660;7.834;2023-04-08T07:22:48;30.27;;;19.93;;
3795;SDS011;1913;50.660;7.834;2023-04-08T07:25:14;30.97;;;20.47;;
3795;SDS011;1913;50.660;7.834;2023-04-08T07:27:40;30.10;;;20.37;;
3795;SDS011;1913;50.660;7.834;2023-04-08T07:30:05;28.57;;;19.50;;
3795;SDS011;1913;50.660;7.834;2023-04-08T07:32:32;34.80;;;21.77;;
3795;SDS011;1913;50.660;7.834;2023-04-08T07:34:58;33.50;;;21.70;;
3795;SDS011;1913;50.660;7.834;2023-04-08T07:37:25;29.70;;;20.10;;
3795;SDS011;1913;50.660;7.834;2023-04-08T07:39:52;31.60;;;19.87;;
3795;SDS011;1913;50.660;7.834;2023-04-08T07:42:18;30.60;;;19.10;;
3795;SDS011;1913;50.660;7.834;2023-04-08T07:44:46;32.90;;;21.23;;
3795;SDS011;1913;50.660;7.834;2023-04-08T07:47:12;38.70;;;21.37;;
3795;SDS011;1913;50.660;7.834;2023-04-08T07:49:38;32.77;;;20.73;;
3795;SDS011;1913;50.660;7.834;2023-04-08T07:52:04;31.20;;;20.10;;
3795;SDS011;1913;50.660;7.834;2023-04-08T07:54:30;34.47;;;21.03;;
3795;SDS011;1913;50.660;7.834;2023-04-08T07:56:58;37.40;;;21.57;;
3795;SDS011;1913;50.660;7.834;2023-04-08T07:59:24;35.27;;;21.63;;
3795;SDS011;1913;50.660;7.834;2023-04-08T08:01:49;31.93;;;19.97;;
3795;SDS011;1913;50.660;7.834;2023-04-08T08:04:14;33.17;;;21.37;;
3795;SDS011;1913;50.660;7.834;2023-04-08T08:06:40;37.27;;;21.83;;
3795;SDS011;1913;50.660;7.834;2023-04-08T08:09:05;36.63;;;22.87;;
3795;SDS011;1913;50.660;7.834;2023-04-08T08:11:30;38.77;;;22.50;;
3795;SDS011;1913;50.660;7.834;2023-04-08T08:13:57;35.10;;;20.30;;
3795;SDS011;1913;50.660;7.834;2023-04-08T08:16:22;32.23;;;21.63;;
3795;SDS011;1913;50.660;7.834;2023-04-08T08:18:51;33.43;;;22.00;;
3795;SDS011;1913;50.660;7.834;2023-04-08T08:21:16;32.37;;;21.10;;
3795;SDS011;1913;50.660;7.834;2023-04-08T08:23:42;33.37;;;21.93;;
3795;SDS011;1913;50.660;7.834;2023-04-08T08:26:07;33.00;;;20.70;;
3795;SDS011;1913;50.660;7.834;2023-04-08T08:28:34;33.43;;;20.50;;
3795;SDS011;1913;50.660;7.834;2023-04-08T08:31:00;32.90;;;20.80;;
3795;SDS011;1913;50.660;7.834;2023-04-08T08:33:26;33.77;;;21.37;;
3795;SDS011;1913;50.660;7.834;2023-04-08T08:35:52;32.10;;;20.67;;
3795;SDS011;1913;50.660;7.834;2023-04-08T08:38:17;34.50;;;20.83;;
3795;SDS011;1913;50.660;7.834;2023-04-08T08:40:43;36.97;;;21.80;;
3795;SDS011;1913;50.660;7.834;2023-04-08T08:43:09;38.97;;;22.33;;
3795;SDS011;1913;50.660;7.834;2023-04-08T08:45:38;32.67;;;20.47;;
3795;SDS011;1913;50.660;7.834;2023-04-08T08:48:05;38.63;;;23.20;;
3795;SDS011;1913;50.660;7.834;2023-04-08T08:50:32;38.00;;;22.60;;
3795;SDS011;1913;50.660;7.834;2023-04-08T08:52:58;34.63;;;21.00;;
3795;SDS011;1913;50.660;7.834;2023-04-08T08:55:23;36.80;;;22.40;;
3795;SDS011;1913;50.660;7.834;2023-04-08T08:57:51;36.10;;;21.00;;
3795;SDS011;1913;50.660;7.834;2023-04-08T09:00:35;33.00;;;20.47;;
3795;SDS011;1913;50.660;7.834;2023-04-08T09:05:48;33.53;;;20.40;;
3795;SDS011;1913;50.660;7.834;2023-04-08T09:08:28;36.53;;;21.63;;
3795;SDS011;1913;50.660;7.834;2023-04-08T09:11:09;31.87;;;20.43;;
3795;SDS011;1913;50.660;7.834;2023-04-08T09:13:36;36.07;;;21.20;;
3795;SDS011;1913;50.660;7.834;2023-04-08T09:16:03;33.37;;;20.30;;
3795;SDS011;1913;50.660;7.834;2023-04-08T09:18:30;34.23;;;21.73;;
3795;SDS011;1913;50.660;7.834;2023-04-08T09:21:02;35.87;;;21.70;;
3795;SDS011;1913;50.660;7.834;2023-04-08T09:23:38;32.60;;;19.60;;
3795;SDS011;1913;50.660;7.834;2023-04-08T09:26:22;33.73;;;21.00;;
3795;SDS011;1913;50.660;7.834;2023-04-08T09:28:59;36.67;;;20.90;;
3795;SDS011;1913;50.660;7.834;2023-04-08T09:31:40;35.27;;;21.40;;
3795;SDS011;1913;50.660;7.834;2023-04-08T09:34:15;34.93;;;21.17;;
3795;SDS011;1913;50.660;7.834;2023-04-08T09:36:42;34.37;;;21.03;;
3795;SDS011;1913;50.660;7.834;2023-04-08T09:39:08;38.50;;;22.50;;
3795;SDS011;1913;50.660;7.834;2023-04-08T09:41:34;34.33;;;21.37;;
3795;SDS011;1913;50.660;7.834;2023-04-08T09:44:05;38.87;;;22.47;;
3795;SDS011;1913;50.660;7.834;2023-04-08T09:49:05;37.63;;;22.97;;
3795;SDS011;1913;50.660;7.834;2023-04-08T09:51:40;40.50;;;23.80;;
3795;SDS011;1913;50.660;7.834;2023-04-08T09:54:13;38.60;;;21.67;;
3795;SDS011;1913;50.660;7.834;2023-04-08T09:56:46;39.70;;;23.30;;
3795;SDS011;1913;50.660;7.834;2023-04-08T09:59:18;39.00;;;22.33;;
3795;SDS011;1913;50.660;7.834;2023-04-08T10:01:54;39.00;;;23.53;;
3795;SDS011;1913;50.660;7.834;2023-04-08T10:04:25;34.70;;;22.30;;
3795;SDS011;1913;50.660;7.834;2023-04-08T10:06:59;40.17;;;23.47;;
3795;SDS011;1913;50.660;7.834;2023-04-08T10:09:29;36.80;;;22.40;;
3795;SDS011;1913;50.660;7.834;2023-04-08T10:11:56;38.57;;;22.73;;
3795;SDS011;1913;50.660;7.834;2023-04-08T10:14:22;38.33;;;23.27;;
3795;SDS011;1913;50.660;7.834;2023-04-08T10:16:47;39.33;;;22.70;;
3795;SDS011;1913;50.660;7.834;2023-04-08T10:27:42;36.73;;;21.87;;
3795;SDS011;1913;50.660;7.834;2023-04-08T10:33:02;35.63;;;21.43;;
3795;SDS011;1913;50.660;7.834;2023-04-08T10:35:48;36.37;;;20.40;;
3795;SDS011;1913;50.660;7.834;2023-04-08T10:38:17;34.13;;;21.13;;
3795;SDS011;1913;50.660;7.834;2023-04-08T10:40:43;38.70;;;21.87;;
3795;SDS011;1913;50.660;7.834;2023-04-08T10:43:10;36.20;;;22.20;;
3795;SDS011;1913;50.660;7.834;2023-04-08T10:45:38;32.93;;;21.40;;
3795;SDS011;1913;50.660;7.834;2023-04-08T10:48:11;34.37;;;20.87;;
3795;SDS011;1913;50.660;7.834;2023-04-08T10:50:42;36.83;;;21.70;;
3795;SDS011;1913;50.660;7.834;2023-04-08T10:53:08;34.57;;;21.70;;
3795;SDS011;1913;50.660;7.834;2023-04-08T10:55:35;33.93;;;21.17;;
3795;SDS011;1913;50.660;7.834;2023-04-08T10:58:07;34.80;;;21.93;;
3795;SDS011;1913;50.660;7.834;2023-04-08T11:00:37;32.80;;;21.50;;
3795;SDS011;1913;50.660;7.834;2023-04-08T11:03:09;31.10;;;20.50;;
3795;SDS011;1913;50.660;7.834;2023-04-08T11:05:35;32.57;;;21.20;;
3795;SDS011;1913;50.660;7.834;2023-04-08T11:08:02;35.80;;;22.00;;
3795;SDS011;1913;50.660;7.834;2023-04-08T11:10:28;31.37;;;20.70;;
3795;SDS011;1913;50.660;7.834;2023-04-08T11:12:54;32.00;;;20.63;;
3795;SDS011;1913;50.660;7.834;2023-04-08T11:15:23;34.47;;;21.43;;
3795;SDS011;1913;50.660;7.834;2023-04-08T11:17:49;34.10;;;20.10;;
3795;SDS011;1913;50.660;7.834;2023-04-08T11:20:15;36.63;;;20.90;;
3795;SDS011;1913;50.660;7.834;2023-04-08T11:22:41;30.40;;;19.10;;
3795;SDS011;1913;50.660;7.834;2023-04-08T11:25:09;29.87;;;18.77;;
3795;SDS011;1913;50.660;7.834;2023-04-08T11:27:35;30.00;;;19.63;;
3795;SDS011;1913;50.660;7.834;2023-04-08T11:30:01;30.90;;;20.40;;
3795;SDS011;1913;50.660;7.834;2023-04-08T11:32:28;31.90;;;21.20;;
3795;SDS011;1913;50.660;7.834;2023-04-08T11:34:53;27.83;;;18.10;;
3795;SDS011;1913;50.660;7.834;2023-04-08T11:37:19;31.97;;;20.60;;
3795;SDS011;1913;50.660;7.834;2023-04-08T11:39:45;33.70;;;20.30;;
3795;SDS011;1913;50.660;7.834;2023-04-08T11:42:29;29.83;;;18.87;;
3795;SDS011;1913;50.660;7.834;2023-04-08T11:44:56;27.63;;;18.40;;
3795;SDS011;1913;50.660;7.834;2023-04-08T11:47:28;27.77;;;19.47;;
3795;SDS011;1913;50.660;7.834;2023-04-08T11:49:55;31.17;;;19.40;;
3795;SDS011;1913;50.660;7.834;2023-04-08T11:52:21;33.27;;;19.70;;
3795;SDS011;1913;50.660;7.834;2023-04-08T11:54:46;28.77;;;18.23;;
3795;SDS011;1913;50.660;7.834;2023-04-08T11:57:12;26.00;;;17.27;;
3795;SDS011;1913;50.660;7.834;2023-04-08T11:59:39;27.83;;;18.73;;
3795;SDS011;1913;50.660;7.834;2023-04-08T12:02:04;25.43;;;17.63;;
3795;SDS011;1913;50.660;7.834;2023-04-08T12:04:30;24.93;;;17.40;;
3795;SDS011;1913;50.660;7.834;2023-04-08T12:06:56;24.40;;;16.70;;
3795;SDS011;1913;50.660;7.834;2023-04-08T12:09:21;27.37;;;17.70;;
3795;SDS011;1913;50.660;7.834;2023-04-08T12:11:47;25.57;;;16.37;;
3795;SDS011;1913;50.660;7.834;2023-04-08T12:14:12;23.77;;;16.60;;
3795;SDS011;1913;50.660;7.834;2023-04-08T12:16:38;21.73;;;15.70;;
3795;SDS011;1913;50.660;7.834;2023-04-08T12:19:03;26.03;;;17.50;;
3795;SDS011;1913;50.660;7.834;2023-04-08T12:21:28;25.33;;;16.90;;
3795;SDS011;1913;50.660;7.834;2023-04-08T12:23:54;24.67;;;17.03;;
3795;SDS011;1913;50.660;7.834;2023-04-08T12:26:19;23.43;;;16.43;;
3795;SDS011;1913;50.660;7.834;2023-04-08T12:28:45;22.37;;;16.00;;
3795;SDS011;1913;50.660;7.834;2023-04-08T12:31:11;23.63;;;15.70;;
3795;SDS011;1913;50.660;7.834;2023-04-08T12:33:36;24.40;;;15.67;;
3795;SDS011;1913;50.660;7.834;2023-04-08T12:36:02;24.03;;;16.47;;
3795;SDS011;1913;50.660;7.834;2023-04-08T12:38:29;23.17;;;15.87;;
3795;SDS011;1913;50.660;7.834;2023-04-08T12:40:54;26.93;;;16.63;;
3795;SDS011;1913;50.660;7.834;2023-04-08T12:43:20;23.00;;;16.00;;
3795;SDS011;1913;50.660;7.834;2023-04-08T12:45:46;20.53;;;13.37;;
3795;SDS011;1913;50.660;7.834;2023-04-08T12:48:13;23.47;;;15.00;;
3795;SDS011;1913;50.660;7.834;2023-04-08T12:50:38;18.53;;;13.40;;
3795;SDS011;1913;50.660;7.834;2023-04-08T12:53:03;22.03;;;13.00;;
3795;SDS011;1913;50.660;7.834;2023-04-08T12:55:29;19.17;;;12.57;;
3795;SDS011;1913;50.660;7.834;2023-04-08T12:57:54;17.90;;;13.03;;
3795;SDS011;1913;50.660;7.834;2023-04-08T13:00:20;18.80;;;13.90;;
3795;SDS011;1913;50.660;7.834;2023-04-08T13:02:45;18.47;;;13.50;;
3795;SDS011;1913;50.660;7.834;2023-04-08T13:05:11;17.10;;;13.10;;
3795;SDS011;1913;50.660;7.834;2023-04-08T13:07:36;20.67;;;13.43;;
3795;SDS011;1913;50.660;7.834;2023-04-08T13:10:02;22.30;;;14.63;;
3795;SDS011;1913;50.660;7.834;2023-04-08T13:12:28;19.10;;;12.97;;
3795;SDS011;1913;50.660;7.834;2023-04-08T13:14:54;18.90;;;14.00;;
3795;SDS011;1913;50.660;7.834;2023-04-08T13:17:19;18.03;;;12.90;;
3795;SDS011;1913;50.660;7.834;2023-04-08T13:19:45;19.43;;;13.77;;
3795;SDS011;1913;50.660;7.834;2023-04-08T13:22:12;22.43;;;13.13;;
3795;SDS011;1913;50.660;7.834;2023-04-08T13:24:38;21.07;;;14.70;;
3795;SDS011;1913;50.660;7.834;2023-04-08T13:27:03;20.07;;;13.23;;
3795;SDS011;1913;50.660;7.834;2023-04-08T13:29:29;19.40;;;12.30;;
3795;SDS011;1913;50.660;7.834;2023-04-08T13:31:54;17.77;;;12.17;;
3795;SDS011;1913;50.660;7.834;2023-04-08T13:34:20;16.83;;;12.00;;
3795;SDS011;1913;50.660;7.834;2023-04-08T13:36:45;14.90;;;11.73;;
3795;SDS011;1913;50.660;7.834;2023-04-08T13:39:10;17.13;;;11.93;;
3795;SDS011;1913;50.660;7.834;2023-04-08T13:41:36;16.93;;;12.50;;
3795;SDS011;1913;50.660;7.834;2023-04-08T13:44:01;16.47;;;11.83;;
3795;SDS011;1913;50.660;7.834;2023-04-08T13:46:27;17.23;;;12.47;;
3795;SDS011;1913;50.660;7.834;2023-04-08T13:48:53;18.77;;;13.50;;
3795;SDS011;1913;50.660;7.834;2023-04-08T13:51:18;17.30;;;12.13;;
3795;SDS011;1913;50.660;7.834;2023-04-08T13:53:43;20.73;;;14.00;;
3795;SDS011;1913;50.660;7.834;2023-04-08T13:56:09;21.50;;;14.37;;
3795;SDS011;1913;50.660;7.834;2023-04-08T13:58:34;19.63;;;14.20;;
3795;SDS011;1913;50.660;7.834;2023-04-08T14:01:00;21.20;;;14.27;;
3795;SDS011;1913;50.660;7.834;2023-04-08T14:03:28;23.13;;;14.50;;
3795;SDS011;1913;50.660;7.834;2023-04-08T14:05:56;20.03;;;14.13;;
3795;SDS011;1913;50.660;7.834;2023-04-08T14:08:22;19.93;;;13.40;;
3795;SDS011;1913;50.660;7.834;2023-04-08T14:10:51;19.03;;;12.53;;
3795;SDS011;1913;50.660;7.834;2023-04-08T14:13:20;21.90;;;14.50;;
3795;SDS011;1913;50.660;7.834;2023-04-08T14:15:57;22.57;;;14.50;;
3795;SDS011;1913;50.660;7.834;2023-04-08T14:18:31;22.33;;;13.83;;
3795;SDS011;1913;50.660;7.834;2023-04-08T14:20:57;19.90;;;13.97;;
3795;SDS011;1913;50.660;7.834;2023-04-08T14:23:23;21.50;;;14.10;;
3795;SDS011;1913;50.660;7.834;2023-04-08T14:25:48;21.60;;;14.47;;
3795;SDS011;1913;50.660;7.834;2023-04-08T14:28:14;20.97;;;14.20;;
3795;SDS011;1913;50.660;7.834;2023-04-08T14:30:42;19.67;;;13.07;;
3795;SDS011;1913;50.660;7.834;2023-04-08T14:33:07;22.83;;;13.97;;
3795;SDS011;1913;50.660;7.834;2023-04-08T14:35:33;19.57;;;12.60;;
3795;SDS011;1913;50.660;7.834;2023-04-08T14:37:58;18.40;;;12.00;;
3795;SDS011;1913;50.660;7.834;2023-04-08T14:40:23;19.00;;;12.20;;
3795;SDS011;1913;50.660;7.834;2023-04-08T14:42:49;16.37;;;10.50;;
3795;SDS011;1913;50.660;7.834;2023-04-08T14:45:15;15.17;;;10.50;;
3795;SDS011;1913;50.660;7.834;2023-04-08T14:47:40;14.33;;;10.50;;
3795;SDS011;1913;50.660;7.834;2023-04-08T14:50:06;13.40;;;9.60;;
3795;SDS011;1913;50.660;7.834;2023-04-08T14:52:31;15.57;;;10.80;;
3795;SDS011;1913;50.660;7.834;2023-04-08T14:54:57;14.50;;;10.60;;
3795;SDS011;1913;50.660;7.834;2023-04-08T14:57:22;13.13;;;10.70;;
3795;SDS011;1913;50.660;7.834;2023-04-08T14:59:47;13.67;;;9.87;;
3795;SDS011;1913;50.660;7.834;2023-04-08T15:02:13;13.70;;;9.70;;